Ibirite, Brazil
Current Conditions -  °F | °C
As of 1:00 PM on Saturday 20 Dec 2014 (Local Time) from SBPR Reporting Station
Broken Clouds Broken Clouds  
Wind Chill: 84°   Ceiling: 2500
Heat Index: 87°   Visibility: 6mi
Dew Point: 68°   Wind: 6mph
Humidity: 58%   Direction: 10°N
Pressure: 30.03"   Gusts: NA
Location:  20.02°S, 44.06°W
Report Text: SBPR 201500Z 01005KT 9999 BKN025 FEW030TCU 29/20 Q1017
Loading
Personal Weather Stations






























Interactive Weather Map New forecast layout! Learn more

10-Day Weather Forecast

Advertisements
Track Severe Weather on mobile